sensor_id;sensor_type;location;lat;lon;timestamp;P1;durP1;ratioP1;P2;durP2;ratioP2
20729;SDS011;10526;50.850;12.928;2023-03-02T00:02:09;52.88;;;26.70;;
20729;SDS011;10526;50.850;12.928;2023-03-02T00:06:38;53.90;;;26.58;;
20729;SDS011;10526;50.850;12.928;2023-03-02T00:11:00;53.20;;;26.90;;
20729;SDS011;10526;50.850;12.928;2023-03-02T00:15:23;54.22;;;26.55;;
20729;SDS011;10526;50.850;12.928;2023-03-02T00:19:45;49.47;;;25.48;;
20729;SDS011;10526;50.850;12.928;2023-03-02T00:24:07;55.00;;;26.67;;
20729;SDS011;10526;50.850;12.928;2023-03-02T00:28:30;54.08;;;26.38;;
20729;SDS011;10526;50.850;12.928;2023-03-02T00:32:52;51.22;;;28.15;;
20729;SDS011;10526;50.850;12.928;2023-03-02T00:37:14;57.70;;;28.42;;
20729;SDS011;10526;50.850;12.928;2023-03-02T00:41:37;58.13;;;28.65;;
20729;SDS011;10526;50.850;12.928;2023-03-02T00:46:06;61.28;;;30.65;;
20729;SDS011;10526;50.850;12.928;2023-03-02T00:50:40;57.90;;;29.13;;
20729;SDS011;10526;50.850;12.928;2023-03-02T00:55:02;49.13;;;26.33;;
20729;SDS011;10526;50.850;12.928;2023-03-02T00:59:25;61.95;;;30.42;;
20729;SDS011;10526;50.850;12.928;2023-03-02T01:03:57;64.88;;;30.63;;
20729;SDS011;10526;50.850;12.928;2023-03-02T01:08:20;63.70;;;29.13;;
20729;SDS011;10526;50.850;12.928;2023-03-02T01:12:43;56.22;;;28.70;;
20729;SDS011;10526;50.850;12.928;2023-03-02T01:17:06;62.05;;;31.52;;
20729;SDS011;10526;50.850;12.928;2023-03-02T01:21:29;61.03;;;30.50;;
20729;SDS011;10526;50.850;12.928;2023-03-02T01:25:52;65.35;;;32.15;;
20729;SDS011;10526;50.850;12.928;2023-03-02T01:30:14;58.97;;;30.70;;
20729;SDS011;10526;50.850;12.928;2023-03-02T01:34:36;65.25;;;32.80;;
20729;SDS011;10526;50.850;12.928;2023-03-02T01:38:59;65.72;;;30.27;;
20729;SDS011;10526;50.850;12.928;2023-03-02T01:43:21;59.22;;;30.13;;
20729;SDS011;10526;50.850;12.928;2023-03-02T01:47:43;67.25;;;33.33;;
20729;SDS011;10526;50.850;12.928;2023-03-02T01:52:10;63.70;;;31.42;;
20729;SDS011;10526;50.850;12.928;2023-03-02T01:56:34;61.15;;;30.55;;
20729;SDS011;10526;50.850;12.928;2023-03-02T02:01:00;60.92;;;30.77;;
20729;SDS011;10526;50.850;12.928;2023-03-02T02:05:23;65.78;;;30.90;;
20729;SDS011;10526;50.850;12.928;2023-03-02T02:09:49;68.35;;;30.75;;
20729;SDS011;10526;50.850;12.928;2023-03-02T02:14:13;55.47;;;28.67;;
20729;SDS011;10526;50.850;12.928;2023-03-02T02:18:36;60.25;;;29.80;;
20729;SDS011;10526;50.850;12.928;2023-03-02T02:27:57;58.65;;;30.20;;
20729;SDS011;10526;50.850;12.928;2023-03-02T02:32:27;58.50;;;27.67;;
20729;SDS011;10526;50.850;12.928;2023-03-02T02:36:54;57.53;;;30.02;;
20729;SDS011;10526;50.850;12.928;2023-03-02T02:41:33;60.50;;;29.90;;
20729;SDS011;10526;50.850;12.928;2023-03-02T02:45:59;56.85;;;29.67;;
20729;SDS011;10526;50.850;12.928;2023-03-02T02:50:24;61.00;;;29.00;;
20729;SDS011;10526;50.850;12.928;2023-03-02T02:54:54;70.80;;;36.00;;
20729;SDS011;10526;50.850;12.928;2023-03-02T02:59:25;54.72;;;28.85;;
20729;SDS011;10526;50.850;12.928;2023-03-02T03:03:57;60.08;;;28.20;;
20729;SDS011;10526;50.850;12.928;2023-03-02T03:13:09;60.13;;;30.13;;
20729;SDS011;10526;50.850;12.928;2023-03-02T03:17:32;60.17;;;30.90;;
20729;SDS011;10526;50.850;12.928;2023-03-02T03:21:57;67.57;;;32.92;;
20729;SDS011;10526;50.850;12.928;2023-03-02T03:26:26;61.85;;;31.52;;
20729;SDS011;10526;50.850;12.928;2023-03-02T03:30:48;62.60;;;32.15;;
20729;SDS011;10526;50.850;12.928;2023-03-02T03:35:11;62.90;;;31.80;;
20729;SDS011;10526;50.850;12.928;2023-03-02T03:39:33;65.13;;;30.20;;
20729;SDS011;10526;50.850;12.928;2023-03-02T03:43:57;56.63;;;29.75;;
20729;SDS011;10526;50.850;12.928;2023-03-02T03:48:21;65.28;;;31.58;;
20729;SDS011;10526;50.850;12.928;2023-03-02T03:52:43;64.00;;;29.95;;
20729;SDS011;10526;50.850;12.928;2023-03-02T03:57:13;62.63;;;32.28;;
20729;SDS011;10526;50.850;12.928;2023-03-02T04:01:37;67.30;;;31.30;;
20729;SDS011;10526;50.850;12.928;2023-03-02T04:06:01;62.55;;;29.88;;
20729;SDS011;10526;50.850;12.928;2023-03-02T04:10:24;58.13;;;29.80;;
20729;SDS011;10526;50.850;12.928;2023-03-02T04:14:47;66.22;;;31.05;;
20729;SDS011;10526;50.850;12.928;2023-03-02T04:19:09;64.47;;;29.52;;
20729;SDS011;10526;50.850;12.928;2023-03-02T04:23:34;64.13;;;30.80;;
20729;SDS011;10526;50.850;12.928;2023-03-02T04:27:57;56.60;;;28.60;;
20729;SDS011;10526;50.850;12.928;2023-03-02T04:32:22;63.85;;;30.35;;
20729;SDS011;10526;50.850;12.928;2023-03-02T04:36:48;71.55;;;33.28;;
20729;SDS011;10526;50.850;12.928;2023-03-02T04:41:10;67.68;;;29.95;;
20729;SDS011;10526;50.850;12.928;2023-03-02T04:45:32;69.00;;;32.25;;
20729;SDS011;10526;50.850;12.928;2023-03-02T04:49:54;62.50;;;30.15;;
20729;SDS011;10526;50.850;12.928;2023-03-02T04:54:18;64.05;;;33.33;;
20729;SDS011;10526;50.850;12.928;2023-03-02T04:58:44;67.22;;;31.77;;
20729;SDS011;10526;50.850;12.928;2023-03-02T05:03:06;64.32;;;31.50;;
20729;SDS011;10526;50.850;12.928;2023-03-02T05:07:28;63.75;;;30.80;;
20729;SDS011;10526;50.850;12.928;2023-03-02T05:11:50;61.65;;;29.20;;
20729;SDS011;10526;50.850;12.928;2023-03-02T05:16:17;62.88;;;30.38;;
20729;SDS011;10526;50.850;12.928;2023-03-02T05:20:41;63.22;;;29.77;;
20729;SDS011;10526;50.850;12.928;2023-03-02T05:25:03;65.50;;;30.08;;
20729;SDS011;10526;50.850;12.928;2023-03-02T05:29:26;62.40;;;30.38;;
20729;SDS011;10526;50.850;12.928;2023-03-02T05:33:48;60.45;;;30.45;;
20729;SDS011;10526;50.850;12.928;2023-03-02T05:38:11;56.70;;;29.02;;
20729;SDS011;10526;50.850;12.928;2023-03-02T05:42:34;60.58;;;29.00;;
20729;SDS011;10526;50.850;12.928;2023-03-02T05:46:57;63.67;;;30.38;;
20729;SDS011;10526;50.850;12.928;2023-03-02T05:51:19;65.10;;;32.28;;
20729;SDS011;10526;50.850;12.928;2023-03-02T05:55:41;63.95;;;31.50;;
20729;SDS011;10526;50.850;12.928;2023-03-02T06:00:04;60.35;;;32.58;;
20729;SDS011;10526;50.850;12.928;2023-03-02T06:04:31;70.22;;;32.78;;
20729;SDS011;10526;50.850;12.928;2023-03-02T06:08:53;64.82;;;34.20;;
20729;SDS011;10526;50.850;12.928;2023-03-02T06:13:15;68.43;;;34.42;;
20729;SDS011;10526;50.850;12.928;2023-03-02T06:17:49;72.50;;;35.55;;
20729;SDS011;10526;50.850;12.928;2023-03-02T06:22:12;77.03;;;38.45;;
20729;SDS011;10526;50.850;12.928;2023-03-02T06:26:34;79.35;;;41.65;;
20729;SDS011;10526;50.850;12.928;2023-03-02T06:30:56;86.75;;;48.35;;
20729;SDS011;10526;50.850;12.928;2023-03-02T06:35:20;70.55;;;41.63;;
20729;SDS011;10526;50.850;12.928;2023-03-02T06:39:44;60.13;;;32.65;;
20729;SDS011;10526;50.850;12.928;2023-03-02T06:44:06;42.65;;;23.95;;
20729;SDS011;10526;50.850;12.928;2023-03-02T06:48:28;34.40;;;19.05;;
20729;SDS011;10526;50.850;12.928;2023-03-02T06:52:51;34.05;;;19.63;;
20729;SDS011;10526;50.850;12.928;2023-03-02T06:57:13;30.30;;;17.23;;
20729;SDS011;10526;50.850;12.928;2023-03-02T07:01:35;33.85;;;19.40;;
20729;SDS011;10526;50.850;12.928;2023-03-02T07:05:57;32.95;;;17.55;;
20729;SDS011;10526;50.850;12.928;2023-03-02T07:10:19;32.05;;;17.38;;
20729;SDS011;10526;50.850;12.928;2023-03-02T07:14:41;30.80;;;17.73;;
20729;SDS011;10526;50.850;12.928;2023-03-02T07:19:03;32.03;;;18.30;;
20729;SDS011;10526;50.850;12.928;2023-03-02T07:23:25;29.20;;;18.63;;
20729;SDS011;10526;50.850;12.928;2023-03-02T07:27:48;32.28;;;19.33;;
20729;SDS011;10526;50.850;12.928;2023-03-02T07:32:10;44.88;;;26.48;;
20729;SDS011;10526;50.850;12.928;2023-03-02T07:36:32;31.20;;;18.98;;
20729;SDS011;10526;50.850;12.928;2023-03-02T07:40:55;29.45;;;18.00;;
20729;SDS011;10526;50.850;12.928;2023-03-02T07:45:17;29.58;;;18.17;;
20729;SDS011;10526;50.850;12.928;2023-03-02T07:49:42;30.20;;;17.05;;
20729;SDS011;10526;50.850;12.928;2023-03-02T07:54:04;29.10;;;18.77;;
20729;SDS011;10526;50.850;12.928;2023-03-02T07:58:26;27.60;;;17.27;;
20729;SDS011;10526;50.850;12.928;2023-03-02T08:02:48;30.50;;;17.05;;
20729;SDS011;10526;50.850;12.928;2023-03-02T08:07:11;32.95;;;19.50;;
20729;SDS011;10526;50.850;12.928;2023-03-02T08:11:33;31.75;;;20.88;;
20729;SDS011;10526;50.850;12.928;2023-03-02T08:16:02;29.58;;;18.05;;
20729;SDS011;10526;50.850;12.928;2023-03-02T08:20:27;30.02;;;18.90;;
20729;SDS011;10526;50.850;12.928;2023-03-02T08:24:49;29.10;;;19.17;;
20729;SDS011;10526;50.850;12.928;2023-03-02T08:29:11;25.63;;;16.88;;
20729;SDS011;10526;50.850;12.928;2023-03-02T08:33:33;25.83;;;17.67;;
20729;SDS011;10526;50.850;12.928;2023-03-02T08:37:56;28.20;;;17.45;;
20729;SDS011;10526;50.850;12.928;2023-03-02T08:42:20;30.63;;;18.23;;
20729;SDS011;10526;50.850;12.928;2023-03-02T08:46:42;29.58;;;16.27;;
20729;SDS011;10526;50.850;12.928;2023-03-02T08:51:06;23.13;;;16.42;;
20729;SDS011;10526;50.850;12.928;2023-03-02T08:55:49;26.13;;;16.45;;
20729;SDS011;10526;50.850;12.928;2023-03-02T09:00:12;26.58;;;16.42;;
20729;SDS011;10526;50.850;12.928;2023-03-02T09:04:36;26.98;;;17.30;;
20729;SDS011;10526;50.850;12.928;2023-03-02T09:08:58;30.50;;;17.77;;
20729;SDS011;10526;50.850;12.928;2023-03-02T09:13:20;29.08;;;17.65;;
20729;SDS011;10526;50.850;12.928;2023-03-02T09:17:43;26.67;;;16.92;;
20729;SDS011;10526;50.850;12.928;2023-03-02T09:22:05;26.60;;;16.88;;
20729;SDS011;10526;50.850;12.928;2023-03-02T09:26:27;27.90;;;16.88;;
20729;SDS011;10526;50.850;12.928;2023-03-02T09:30:53;26.05;;;16.67;;
20729;SDS011;10526;50.850;12.928;2023-03-02T09:35:18;27.55;;;16.48;;
20729;SDS011;10526;50.850;12.928;2023-03-02T09:39:40;27.48;;;15.50;;
20729;SDS011;10526;50.850;12.928;2023-03-02T09:44:16;25.45;;;15.57;;
20729;SDS011;10526;50.850;12.928;2023-03-02T09:49:09;26.77;;;16.73;;
20729;SDS011;10526;50.850;12.928;2023-03-02T09:54:12;26.52;;;16.63;;
20729;SDS011;10526;50.850;12.928;2023-03-02T09:58:47;27.42;;;17.00;;
20729;SDS011;10526;50.850;12.928;2023-03-02T10:03:42;28.17;;;17.70;;
20729;SDS011;10526;50.850;12.928;2023-03-02T10:12:52;31.52;;;18.65;;
20729;SDS011;10526;50.850;12.928;2023-03-02T10:22:42;27.95;;;18.17;;
20729;SDS011;10526;50.850;12.928;2023-03-02T10:27:17;30.90;;;17.83;;
20729;SDS011;10526;50.850;12.928;2023-03-02T10:32:06;26.25;;;16.33;;
20729;SDS011;10526;50.850;12.928;2023-03-02T10:37:02;28.83;;;16.73;;
20729;SDS011;10526;50.850;12.928;2023-03-02T10:41:42;35.30;;;19.02;;
20729;SDS011;10526;50.850;12.928;2023-03-02T10:46:36;25.98;;;16.88;;
20729;SDS011;10526;50.850;12.928;2023-03-02T10:51:01;31.45;;;17.48;;
20729;SDS011;10526;50.850;12.928;2023-03-02T10:55:24;27.50;;;17.27;;
20729;SDS011;10526;50.850;12.928;2023-03-02T10:59:46;27.42;;;16.85;;
20729;SDS011;10526;50.850;12.928;2023-03-02T11:04:10;24.40;;;16.75;;
20729;SDS011;10526;50.850;12.928;2023-03-02T11:08:34;29.92;;;18.05;;
20729;SDS011;10526;50.850;12.928;2023-03-02T11:12:57;30.75;;;17.73;;
20729;SDS011;10526;50.850;12.928;2023-03-02T11:17:32;29.40;;;18.67;;
20729;SDS011;10526;50.850;12.928;2023-03-02T11:26:55;29.15;;;18.30;;
20729;SDS011;10526;50.850;12.928;2023-03-02T11:31:37;29.20;;;18.20;;
20729;SDS011;10526;50.850;12.928;2023-03-02T11:36:22;32.65;;;18.10;;
20729;SDS011;10526;50.850;12.928;2023-03-02T11:41:04;31.08;;;18.63;;
20729;SDS011;10526;50.850;12.928;2023-03-02T11:45:50;28.95;;;17.73;;
20729;SDS011;10526;50.850;12.928;2023-03-02T11:50:31;31.08;;;17.92;;
20729;SDS011;10526;50.850;12.928;2023-03-02T11:55:08;32.13;;;18.92;;
20729;SDS011;10526;50.850;12.928;2023-03-02T11:59:37;31.67;;;18.73;;
20729;SDS011;10526;50.850;12.928;2023-03-02T12:09:10;35.42;;;20.88;;
20729;SDS011;10526;50.850;12.928;2023-03-02T12:13:56;32.53;;;19.20;;
20729;SDS011;10526;50.850;12.928;2023-03-02T12:22:43;32.88;;;18.42;;
20729;SDS011;10526;50.850;12.928;2023-03-02T12:36:11;35.83;;;19.65;;
20729;SDS011;10526;50.850;12.928;2023-03-02T12:45:45;38.22;;;19.90;;
20729;SDS011;10526;50.850;12.928;2023-03-02T12:50:45;37.58;;;19.25;;
20729;SDS011;10526;50.850;12.928;2023-03-02T12:59:37;34.72;;;18.30;;
20729;SDS011;10526;50.850;12.928;2023-03-02T13:03:59;37.00;;;18.48;;
20729;SDS011;10526;50.850;12.928;2023-03-02T13:08:24;35.20;;;18.10;;
20729;SDS011;10526;50.850;12.928;2023-03-02T13:12:49;35.70;;;17.00;;
20729;SDS011;10526;50.850;12.928;2023-03-02T13:17:30;35.58;;;16.92;;
20729;SDS011;10526;50.850;12.928;2023-03-02T13:21:53;31.42;;;15.27;;
20729;SDS011;10526;50.850;12.928;2023-03-02T13:26:29;33.10;;;15.25;;
20729;SDS011;10526;50.850;12.928;2023-03-02T13:31:05;33.05;;;15.23;;
20729;SDS011;10526;50.850;12.928;2023-03-02T13:35:43;28.70;;;13.93;;
20729;SDS011;10526;50.850;12.928;2023-03-02T13:44:50;29.85;;;14.35;;
20729;SDS011;10526;50.850;12.928;2023-03-02T13:49:12;26.00;;;12.48;;
20729;SDS011;10526;50.850;12.928;2023-03-02T13:53:34;24.55;;;12.43;;
20729;SDS011;10526;50.850;12.928;2023-03-02T13:57:58;23.50;;;11.88;;
20729;SDS011;10526;50.850;12.928;2023-03-02T14:02:28;20.55;;;10.55;;
20729;SDS011;10526;50.850;12.928;2023-03-02T14:06:51;23.30;;;11.25;;
20729;SDS011;10526;50.850;12.928;2023-03-02T14:11:14;22.20;;;9.57;;
20729;SDS011;10526;50.850;12.928;2023-03-02T14:15:42;20.98;;;10.32;;
20729;SDS011;10526;50.850;12.928;2023-03-02T14:20:13;22.65;;;9.68;;
20729;SDS011;10526;50.850;12.928;2023-03-02T14:24:39;21.40;;;9.48;;
20729;SDS011;10526;50.850;12.928;2023-03-02T14:33:47;17.52;;;8.40;;
20729;SDS011;10526;50.850;12.928;2023-03-02T14:38:09;23.23;;;8.25;;
20729;SDS011;10526;50.850;12.928;2023-03-02T14:42:32;18.00;;;8.35;;
20729;SDS011;10526;50.850;12.928;2023-03-02T14:46:54;20.17;;;8.30;;
20729;SDS011;10526;50.850;12.928;2023-03-02T14:51:19;18.15;;;8.10;;
20729;SDS011;10526;50.850;12.928;2023-03-02T14:55:46;18.08;;;8.35;;
20729;SDS011;10526;50.850;12.928;2023-03-02T15:00:10;18.50;;;8.50;;
20729;SDS011;10526;50.850;12.928;2023-03-02T15:04:35;19.70;;;8.35;;
20729;SDS011;10526;50.850;12.928;2023-03-02T15:08:58;19.00;;;7.90;;
20729;SDS011;10526;50.850;12.928;2023-03-02T15:13:21;19.27;;;8.85;;
20729;SDS011;10526;50.850;12.928;2023-03-02T15:17:43;19.48;;;8.43;;
20729;SDS011;10526;50.850;12.928;2023-03-02T15:22:05;20.25;;;8.63;;
20729;SDS011;10526;50.850;12.928;2023-03-02T15:26:27;21.08;;;8.80;;
20729;SDS011;10526;50.850;12.928;2023-03-02T15:30:50;19.15;;;8.70;;
20729;SDS011;10526;50.850;12.928;2023-03-02T15:35:12;27.17;;;9.60;;
20729;SDS011;10526;50.850;12.928;2023-03-02T15:39:34;19.75;;;7.53;;
20729;SDS011;10526;50.850;12.928;2023-03-02T15:43:56;20.23;;;8.40;;
20729;SDS011;10526;50.850;12.928;2023-03-02T15:48:18;27.52;;;9.63;;
20729;SDS011;10526;50.850;12.928;2023-03-02T15:52:40;20.02;;;8.75;;
20729;SDS011;10526;50.850;12.928;2023-03-02T15:57:02;19.88;;;8.73;;
20729;SDS011;10526;50.850;12.928;2023-03-02T16:01:24;22.50;;;9.68;;
20729;SDS011;10526;50.850;12.928;2023-03-02T16:05:46;20.25;;;9.38;;
20729;SDS011;10526;50.850;12.928;2023-03-02T16:10:09;23.15;;;10.88;;
20729;SDS011;10526;50.850;12.928;2023-03-02T16:14:35;26.42;;;10.32;;
20729;SDS011;10526;50.850;12.928;2023-03-02T16:18:57;27.25;;;11.60;;
20729;SDS011;10526;50.850;12.928;2023-03-02T16:23:20;25.95;;;11.13;;
20729;SDS011;10526;50.850;12.928;2023-03-02T16:27:42;24.30;;;10.57;;
20729;SDS011;10526;50.850;12.928;2023-03-02T16:32:07;25.90;;;10.85;;
20729;SDS011;10526;50.850;12.928;2023-03-02T16:36:30;25.38;;;10.25;;
20729;SDS011;10526;50.850;12.928;2023-03-02T16:40:52;26.20;;;11.10;;
20729;SDS011;10526;50.850;12.928;2023-03-02T16:45:17;25.15;;;11.52;;
20729;SDS011;10526;50.850;12.928;2023-03-02T16:49:40;26.80;;;11.52;;
20729;SDS011;10526;50.850;12.928;2023-03-02T16:54:03;26.83;;;12.32;;
20729;SDS011;10526;50.850;12.928;2023-03-02T16:58:25;27.45;;;12.23;;
20729;SDS011;10526;50.850;12.928;2023-03-02T17:02:47;30.10;;;12.95;;
20729;SDS011;10526;50.850;12.928;2023-03-02T17:07:10;25.63;;;11.50;;
20729;SDS011;10526;50.850;12.928;2023-03-02T17:11:33;28.70;;;12.20;;
20729;SDS011;10526;50.850;12.928;2023-03-02T17:15:55;28.15;;;12.77;;
20729;SDS011;10526;50.850;12.928;2023-03-02T17:20:18;32.15;;;13.18;;
20729;SDS011;10526;50.850;12.928;2023-03-02T17:24:41;27.02;;;12.27;;
20729;SDS011;10526;50.850;12.928;2023-03-02T17:29:03;26.65;;;12.63;;
20729;SDS011;10526;50.850;12.928;2023-03-02T17:33:25;29.33;;;12.07;;
20729;SDS011;10526;50.850;12.928;2023-03-02T17:37:49;33.83;;;14.00;;
20729;SDS011;10526;50.850;12.928;2023-03-02T17:42:11;28.75;;;13.10;;
20729;SDS011;10526;50.850;12.928;2023-03-02T17:46:33;32.42;;;13.93;;
20729;SDS011;10526;50.850;12.928;2023-03-02T17:50:55;33.92;;;14.55;;
20729;SDS011;10526;50.850;12.928;2023-03-02T17:55:18;30.08;;;13.45;;
20729;SDS011;10526;50.850;12.928;2023-03-02T17:59:40;29.27;;;13.68;;
20729;SDS011;10526;50.850;12.928;2023-03-02T18:04:02;31.95;;;13.30;;
20729;SDS011;10526;50.850;12.928;2023-03-02T18:08:25;29.52;;;13.13;;
20729;SDS011;10526;50.850;12.928;2023-03-02T18:12:47;35.90;;;16.02;;
20729;SDS011;10526;50.850;12.928;2023-03-02T18:17:13;37.40;;;14.27;;
20729;SDS011;10526;50.850;12.928;2023-03-02T18:21:35;53.80;;;15.70;;
20729;SDS011;10526;50.850;12.928;2023-03-02T18:26:00;33.90;;;14.43;;
20729;SDS011;10526;50.850;12.928;2023-03-02T18:30:22;28.88;;;12.98;;
20729;SDS011;10526;50.850;12.928;2023-03-02T18:34:44;33.70;;;14.77;;
20729;SDS011;10526;50.850;12.928;2023-03-02T18:39:06;32.85;;;15.45;;
20729;SDS011;10526;50.850;12.928;2023-03-02T18:43:29;30.63;;;14.85;;
20729;SDS011;10526;50.850;12.928;2023-03-02T18:47:55;34.35;;;13.88;;
20729;SDS011;10526;50.850;12.928;2023-03-02T18:52:18;41.25;;;15.05;;
20729;SDS011;10526;50.850;12.928;2023-03-02T18:56:40;37.58;;;15.77;;
20729;SDS011;10526;50.850;12.928;2023-03-02T19:01:03;39.60;;;17.40;;
20729;SDS011;10526;50.850;12.928;2023-03-02T19:05:25;41.25;;;17.73;;
20729;SDS011;10526;50.850;12.928;2023-03-02T19:09:50;47.42;;;17.77;;
20729;SDS011;10526;50.850;12.928;2023-03-02T19:14:12;39.47;;;18.08;;
20729;SDS011;10526;50.850;12.928;2023-03-02T19:18:35;45.35;;;18.13;;
20729;SDS011;10526;50.850;12.928;2023-03-02T19:22:58;49.35;;;19.33;;
20729;SDS011;10526;50.850;12.928;2023-03-02T19:27:20;39.33;;;18.67;;
20729;SDS011;10526;50.850;12.928;2023-03-02T19:31:42;41.72;;;18.13;;
20729;SDS011;10526;50.850;12.928;2023-03-02T19:36:04;44.58;;;19.27;;
20729;SDS011;10526;50.850;12.928;2023-03-02T19:40:27;43.72;;;20.88;;
20729;SDS011;10526;50.850;12.928;2023-03-02T19:44:51;48.80;;;21.77;;
20729;SDS011;10526;50.850;12.928;2023-03-02T19:49:13;47.10;;;21.45;;
20729;SDS011;10526;50.850;12.928;2023-03-02T19:53:36;46.78;;;22.02;;
20729;SDS011;10526;50.850;12.928;2023-03-02T19:58:00;53.70;;;21.83;;
20729;SDS011;10526;50.850;12.928;2023-03-02T20:02:22;47.13;;;21.63;;
20729;SDS011;10526;50.850;12.928;2023-03-02T20:06:44;48.13;;;22.70;;
20729;SDS011;10526;50.850;12.928;2023-03-02T20:11:06;43.97;;;21.10;;
20729;SDS011;10526;50.850;12.928;2023-03-02T20:15:29;54.60;;;24.77;;
20729;SDS011;10526;50.850;12.928;2023-03-02T20:19:53;50.17;;;23.67;;
20729;SDS011;10526;50.850;12.928;2023-03-02T20:24:17;51.25;;;22.63;;
20729;SDS011;10526;50.850;12.928;2023-03-02T20:28:39;52.15;;;22.50;;
20729;SDS011;10526;50.850;12.928;2023-03-02T20:33:03;42.97;;;21.63;;
20729;SDS011;10526;50.850;12.928;2023-03-02T20:37:26;42.80;;;21.27;;
20729;SDS011;10526;50.850;12.928;2023-03-02T20:41:48;46.78;;;21.40;;
20729;SDS011;10526;50.850;12.928;2023-03-02T20:46:12;51.15;;;23.10;;
20729;SDS011;10526;50.850;12.928;2023-03-02T20:50:48;45.05;;;21.25;;
20729;SDS011;10526;50.850;12.928;2023-03-02T20:55:11;49.63;;;23.30;;
20729;SDS011;10526;50.850;12.928;2023-03-02T20:59:34;51.97;;;23.50;;
20729;SDS011;10526;50.850;12.928;2023-03-02T21:03:57;48.03;;;22.30;;
20729;SDS011;10526;50.850;12.928;2023-03-02T21:08:20;50.20;;;22.63;;
20729;SDS011;10526;50.850;12.928;2023-03-02T21:12:42;48.30;;;22.75;;
20729;SDS011;10526;50.850;12.928;2023-03-02T21:17:05;51.90;;;22.60;;
20729;SDS011;10526;50.850;12.928;2023-03-02T21:21:28;52.92;;;23.17;;
20729;SDS011;10526;50.850;12.928;2023-03-02T21:26:01;53.58;;;24.00;;
20729;SDS011;10526;50.850;12.928;2023-03-02T21:30:25;54.80;;;23.85;;
20729;SDS011;10526;50.850;12.928;2023-03-02T21:34:50;51.22;;;23.38;;
20729;SDS011;10526;50.850;12.928;2023-03-02T21:39:13;55.70;;;23.35;;
20729;SDS011;10526;50.850;12.928;2023-03-02T21:43:42;48.47;;;22.40;;
